sensor_id;sensor_type;location;lat;lon;timestamp;P1;durP1;ratioP1;P2;durP2;ratioP2
57752;SDS011;43583;53.132;6.574;2023-06-04T00:00:53;2.80;;;0.55;;
57752;SDS011;43583;53.132;6.574;2023-06-04T00:03:19;3.78;;;0.75;;
57752;SDS011;43583;53.132;6.574;2023-06-04T00:05:45;3.72;;;0.65;;
57752;SDS011;43583;53.132;6.574;2023-06-04T00:08:10;6.82;;;0.65;;
57752;SDS011;43583;53.132;6.574;2023-06-04T00:10:36;5.28;;;1.02;;
57752;SDS011;43583;53.132;6.574;2023-06-04T00:13:04;3.28;;;0.93;;
57752;SDS011;43583;53.132;6.574;2023-06-04T00:15:30;3.85;;;0.90;;
57752;SDS011;43583;53.132;6.574;2023-06-04T00:17:55;6.32;;;1.23;;
57752;SDS011;43583;53.132;6.574;2023-06-04T00:20:21;9.85;;;1.42;;
57752;SDS011;43583;53.132;6.574;2023-06-04T00:22:47;4.05;;;0.82;;
57752;SDS011;43583;53.132;6.574;2023-06-04T00:25:13;6.78;;;1.08;;
57752;SDS011;43583;53.132;6.574;2023-06-04T00:27:38;6.38;;;0.90;;
57752;SDS011;43583;53.132;6.574;2023-06-04T00:30:04;3.33;;;0.82;;
57752;SDS011;43583;53.132;6.574;2023-06-04T00:32:30;5.18;;;0.95;;
57752;SDS011;43583;53.132;6.574;2023-06-04T00:34:56;9.60;;;1.20;;
57752;SDS011;43583;53.132;6.574;2023-06-04T00:37:25;2.88;;;0.80;;
57752;SDS011;43583;53.132;6.574;2023-06-04T00:39:51;5.40;;;0.57;;
57752;SDS011;43583;53.132;6.574;2023-06-04T00:42:17;2.35;;;1.13;;
57752;SDS011;43583;53.132;6.574;2023-06-04T00:44:42;5.10;;;1.27;;
57752;SDS011;43583;53.132;6.574;2023-06-04T00:47:13;5.40;;;1.40;;
57752;SDS011;43583;53.132;6.574;2023-06-04T00:49:40;3.03;;;1.27;;
57752;SDS011;43583;53.132;6.574;2023-06-04T00:52:07;3.13;;;0.88;;
57752;SDS011;43583;53.132;6.574;2023-06-04T00:54:34;4.47;;;0.80;;
57752;SDS011;43583;53.132;6.574;2023-06-04T00:57:00;6.18;;;0.88;;
57752;SDS011;43583;53.132;6.574;2023-06-04T00:59:26;3.03;;;0.60;;
57752;SDS011;43583;53.132;6.574;2023-06-04T01:01:57;2.20;;;0.70;;
57752;SDS011;43583;53.132;6.574;2023-06-04T01:04:37;4.07;;;0.82;;
57752;SDS011;43583;53.132;6.574;2023-06-04T01:07:10;3.58;;;0.82;;
57752;SDS011;43583;53.132;6.574;2023-06-04T01:09:38;7.82;;;1.35;;
57752;SDS011;43583;53.132;6.574;2023-06-04T01:12:04;8.77;;;1.48;;
57752;SDS011;43583;53.132;6.574;2023-06-04T01:14:33;3.20;;;0.88;;
57752;SDS011;43583;53.132;6.574;2023-06-04T01:17:09;5.32;;;1.10;;
57752;SDS011;43583;53.132;6.574;2023-06-04T01:25:20;7.35;;;2.15;;
57752;SDS011;43583;53.132;6.574;2023-06-04T01:27:50;6.60;;;2.00;;
57752;SDS011;43583;53.132;6.574;2023-06-04T01:30:23;4.85;;;1.52;;
57752;SDS011;43583;53.132;6.574;2023-06-04T01:32:54;10.27;;;1.73;;
57752;SDS011;43583;53.132;6.574;2023-06-04T01:35:21;6.45;;;1.63;;
57752;SDS011;43583;53.132;6.574;2023-06-04T01:37:47;4.18;;;1.02;;
57752;SDS011;43583;53.132;6.574;2023-06-04T01:40:13;7.63;;;1.65;;
57752;SDS011;43583;53.132;6.574;2023-06-04T01:42:40;5.15;;;2.05;;
57752;SDS011;43583;53.132;6.574;2023-06-04T01:45:07;5.88;;;2.25;;
57752;SDS011;43583;53.132;6.574;2023-06-04T01:47:33;4.70;;;1.48;;
57752;SDS011;43583;53.132;6.574;2023-06-04T01:50:00;5.68;;;1.33;;
57752;SDS011;43583;53.132;6.574;2023-06-04T01:52:30;5.20;;;2.13;;
57752;SDS011;43583;53.132;6.574;2023-06-04T01:54:56;4.93;;;1.65;;
57752;SDS011;43583;53.132;6.574;2023-06-04T01:57:22;6.88;;;1.48;;
57752;SDS011;43583;53.132;6.574;2023-06-04T01:59:48;6.95;;;1.50;;
57752;SDS011;43583;53.132;6.574;2023-06-04T02:02:13;2.53;;;1.48;;
57752;SDS011;43583;53.132;6.574;2023-06-04T02:04:39;7.63;;;1.40;;
57752;SDS011;43583;53.132;6.574;2023-06-04T02:07:09;4.93;;;1.48;;
57752;SDS011;43583;53.132;6.574;2023-06-04T02:09:35;6.68;;;1.13;;
57752;SDS011;43583;53.132;6.574;2023-06-04T02:12:01;3.90;;;1.25;;
57752;SDS011;43583;53.132;6.574;2023-06-04T02:14:27;6.22;;;1.88;;
57752;SDS011;43583;53.132;6.574;2023-06-04T02:16:52;6.22;;;1.23;;
57752;SDS011;43583;53.132;6.574;2023-06-04T02:19:18;4.65;;;1.05;;
57752;SDS011;43583;53.132;6.574;2023-06-04T02:21:45;2.35;;;1.33;;
57752;SDS011;43583;53.132;6.574;2023-06-04T02:24:11;6.22;;;1.23;;
57752;SDS011;43583;53.132;6.574;2023-06-04T02:26:37;4.78;;;1.10;;
57752;SDS011;43583;53.132;6.574;2023-06-04T02:29:03;5.53;;;1.42;;
57752;SDS011;43583;53.132;6.574;2023-06-04T02:31:29;3.55;;;1.00;;
57752;SDS011;43583;53.132;6.574;2023-06-04T02:33:55;4.30;;;0.93;;
57752;SDS011;43583;53.132;6.574;2023-06-04T02:36:21;3.70;;;0.60;;
57752;SDS011;43583;53.132;6.574;2023-06-04T02:38:47;4.68;;;1.00;;
57752;SDS011;43583;53.132;6.574;2023-06-04T02:41:12;3.40;;;1.20;;
57752;SDS011;43583;53.132;6.574;2023-06-04T02:43:38;3.03;;;1.15;;
57752;SDS011;43583;53.132;6.574;2023-06-04T02:46:03;2.50;;;1.05;;
57752;SDS011;43583;53.132;6.574;2023-06-04T02:48:29;3.33;;;1.20;;
57752;SDS011;43583;53.132;6.574;2023-06-04T02:50:54;4.55;;;1.13;;
57752;SDS011;43583;53.132;6.574;2023-06-04T02:53:20;4.22;;;1.00;;
57752;SDS011;43583;53.132;6.574;2023-06-04T02:55:46;3.22;;;0.90;;
57752;SDS011;43583;53.132;6.574;2023-06-04T02:58:12;3.65;;;1.25;;
57752;SDS011;43583;53.132;6.574;2023-06-04T03:00:39;4.32;;;1.00;;
57752;SDS011;43583;53.132;6.574;2023-06-04T03:03:05;3.83;;;1.13;;
57752;SDS011;43583;53.132;6.574;2023-06-04T03:05:30;3.10;;;1.70;;
57752;SDS011;43583;53.132;6.574;2023-06-04T03:07:57;4.57;;;1.23;;
57752;SDS011;43583;53.132;6.574;2023-06-04T03:10:24;5.05;;;1.60;;
57752;SDS011;43583;53.132;6.574;2023-06-04T03:12:50;6.13;;;2.10;;
57752;SDS011;43583;53.132;6.574;2023-06-04T03:15:16;4.38;;;1.58;;
57752;SDS011;43583;53.132;6.574;2023-06-04T03:17:41;2.97;;;1.20;;
57752;SDS011;43583;53.132;6.574;2023-06-04T03:20:07;5.55;;;1.85;;
57752;SDS011;43583;53.132;6.574;2023-06-04T03:22:34;3.17;;;1.67;;
57752;SDS011;43583;53.132;6.574;2023-06-04T03:25:00;9.20;;;2.55;;
57752;SDS011;43583;53.132;6.574;2023-06-04T03:27:27;6.55;;;1.90;;
57752;SDS011;43583;53.132;6.574;2023-06-04T03:29:52;9.63;;;2.83;;
57752;SDS011;43583;53.132;6.574;2023-06-04T03:32:18;4.68;;;1.67;;
57752;SDS011;43583;53.132;6.574;2023-06-04T03:34:43;5.00;;;1.83;;
57752;SDS011;43583;53.132;6.574;2023-06-04T03:37:09;8.05;;;2.28;;
57752;SDS011;43583;53.132;6.574;2023-06-04T03:39:35;6.25;;;2.80;;
57752;SDS011;43583;53.132;6.574;2023-06-04T03:42:00;5.40;;;2.88;;
57752;SDS011;43583;53.132;6.574;2023-06-04T03:44:26;8.27;;;2.72;;
57752;SDS011;43583;53.132;6.574;2023-06-04T03:46:51;5.35;;;2.33;;
57752;SDS011;43583;53.132;6.574;2023-06-04T03:49:17;5.72;;;2.67;;
57752;SDS011;43583;53.132;6.574;2023-06-04T03:51:43;6.28;;;2.50;;
57752;SDS011;43583;53.132;6.574;2023-06-04T03:54:08;5.90;;;1.90;;
57752;SDS011;43583;53.132;6.574;2023-06-04T03:56:35;7.55;;;2.35;;
57752;SDS011;43583;53.132;6.574;2023-06-04T03:59:00;4.78;;;2.20;;
57752;SDS011;43583;53.132;6.574;2023-06-04T04:01:26;8.18;;;2.13;;
57752;SDS011;43583;53.132;6.574;2023-06-04T04:03:53;8.80;;;2.60;;
57752;SDS011;43583;53.132;6.574;2023-06-04T04:06:19;11.15;;;2.92;;
57752;SDS011;43583;53.132;6.574;2023-06-04T04:08:45;5.20;;;2.40;;
57752;SDS011;43583;53.132;6.574;2023-06-04T04:11:11;9.02;;;2.30;;
57752;SDS011;43583;53.132;6.574;2023-06-04T04:13:38;3.63;;;2.80;;
57752;SDS011;43583;53.132;6.574;2023-06-04T04:16:03;6.00;;;2.63;;
57752;SDS011;43583;53.132;6.574;2023-06-04T04:18:32;3.55;;;1.80;;
57752;SDS011;43583;53.132;6.574;2023-06-04T04:20:58;5.95;;;1.42;;
57752;SDS011;43583;53.132;6.574;2023-06-04T04:23:24;4.18;;;2.13;;
57752;SDS011;43583;53.132;6.574;2023-06-04T04:25:50;7.93;;;2.22;;
57752;SDS011;43583;53.132;6.574;2023-06-04T04:28:18;6.43;;;2.00;;
57752;SDS011;43583;53.132;6.574;2023-06-04T04:30:44;6.57;;;1.90;;
57752;SDS011;43583;53.132;6.574;2023-06-04T04:33:11;7.43;;;2.20;;
57752;SDS011;43583;53.132;6.574;2023-06-04T04:35:40;2.67;;;1.50;;
57752;SDS011;43583;53.132;6.574;2023-06-04T04:38:09;6.93;;;1.98;;
57752;SDS011;43583;53.132;6.574;2023-06-04T04:40:35;4.95;;;1.63;;
57752;SDS011;43583;53.132;6.574;2023-06-04T04:43:01;7.00;;;1.75;;
57752;SDS011;43583;53.132;6.574;2023-06-04T04:45:27;6.43;;;1.50;;
57752;SDS011;43583;53.132;6.574;2023-06-04T04:47:52;4.97;;;1.10;;
57752;SDS011;43583;53.132;6.574;2023-06-04T04:50:18;6.15;;;1.05;;
57752;SDS011;43583;53.132;6.574;2023-06-04T04:52:44;4.70;;;1.95;;
57752;SDS011;43583;53.132;6.574;2023-06-04T04:55:09;4.93;;;1.05;;
57752;SDS011;43583;53.132;6.574;2023-06-04T04:57:36;3.63;;;1.55;;
57752;SDS011;43583;53.132;6.574;2023-06-04T05:00:03;3.72;;;1.45;;
57752;SDS011;43583;53.132;6.574;2023-06-04T05:02:34;3.72;;;1.23;;
57752;SDS011;43583;53.132;6.574;2023-06-04T05:05:00;3.50;;;1.15;;
57752;SDS011;43583;53.132;6.574;2023-06-04T05:07:26;5.45;;;1.38;;
57752;SDS011;43583;53.132;6.574;2023-06-04T05:09:51;4.45;;;1.00;;
57752;SDS011;43583;53.132;6.574;2023-06-04T05:12:17;4.78;;;1.10;;
57752;SDS011;43583;53.132;6.574;2023-06-04T05:14:43;4.07;;;0.63;;
57752;SDS011;43583;53.132;6.574;2023-06-04T05:17:09;4.22;;;0.75;;
57752;SDS011;43583;53.132;6.574;2023-06-04T05:19:36;2.33;;;0.93;;
57752;SDS011;43583;53.132;6.574;2023-06-04T05:22:02;4.00;;;0.82;;
57752;SDS011;43583;53.132;6.574;2023-06-04T05:24:28;4.38;;;0.73;;
57752;SDS011;43583;53.132;6.574;2023-06-04T05:26:54;4.70;;;0.65;;
57752;SDS011;43583;53.132;6.574;2023-06-04T05:29:21;3.55;;;0.45;;
57752;SDS011;43583;53.132;6.574;2023-06-04T05:31:47;3.35;;;0.50;;
57752;SDS011;43583;53.132;6.574;2023-06-04T05:34:13;4.85;;;0.95;;
57752;SDS011;43583;53.132;6.574;2023-06-04T05:36:41;2.63;;;0.80;;
57752;SDS011;43583;53.132;6.574;2023-06-04T05:39:07;5.55;;;1.05;;
57752;SDS011;43583;53.132;6.574;2023-06-04T05:41:34;2.92;;;0.73;;
57752;SDS011;43583;53.132;6.574;2023-06-04T05:44:00;4.07;;;0.60;;
57752;SDS011;43583;53.132;6.574;2023-06-04T05:46:26;4.72;;;0.60;;
57752;SDS011;43583;53.132;6.574;2023-06-04T05:48:52;3.97;;;0.60;;
57752;SDS011;43583;53.132;6.574;2023-06-04T05:51:19;3.00;;;0.57;;
57752;SDS011;43583;53.132;6.574;2023-06-04T05:53:45;2.72;;;0.60;;
57752;SDS011;43583;53.132;6.574;2023-06-04T05:56:11;4.22;;;0.60;;
57752;SDS011;43583;53.132;6.574;2023-06-04T05:58:36;3.22;;;0.40;;
57752;SDS011;43583;53.132;6.574;2023-06-04T06:01:02;3.80;;;0.65;;
57752;SDS011;43583;53.132;6.574;2023-06-04T06:03:28;3.72;;;0.52;;
57752;SDS011;43583;53.132;6.574;2023-06-04T06:05:54;2.67;;;0.38;;
57752;SDS011;43583;53.132;6.574;2023-06-04T06:08:20;5.05;;;0.40;;
57752;SDS011;43583;53.132;6.574;2023-06-04T06:10:46;3.40;;;0.50;;
57752;SDS011;43583;53.132;6.574;2023-06-04T06:13:12;4.20;;;0.50;;
57752;SDS011;43583;53.132;6.574;2023-06-04T06:15:37;3.50;;;0.52;;
57752;SDS011;43583;53.132;6.574;2023-06-04T06:18:03;4.75;;;0.38;;
57752;SDS011;43583;53.132;6.574;2023-06-04T06:20:29;3.67;;;0.90;;
57752;SDS011;43583;53.132;6.574;2023-06-04T06:22:55;3.00;;;0.40;;
57752;SDS011;43583;53.132;6.574;2023-06-04T06:25:20;3.55;;;0.45;;
57752;SDS011;43583;53.132;6.574;2023-06-04T06:27:46;3.25;;;0.40;;
57752;SDS011;43583;53.132;6.574;2023-06-04T06:30:13;2.63;;;0.30;;
57752;SDS011;43583;53.132;6.574;2023-06-04T06:32:39;2.85;;;0.38;;
57752;SDS011;43583;53.132;6.574;2023-06-04T06:35:05;3.28;;;0.30;;
57752;SDS011;43583;53.132;6.574;2023-06-04T06:37:32;2.25;;;0.40;;
57752;SDS011;43583;53.132;6.574;2023-06-04T06:39:58;3.17;;;0.40;;
57752;SDS011;43583;53.132;6.574;2023-06-04T06:42:24;4.05;;;0.55;;
57752;SDS011;43583;53.132;6.574;2023-06-04T06:44:50;8.63;;;0.90;;
57752;SDS011;43583;53.132;6.574;2023-06-04T06:47:15;2.58;;;0.60;;
57752;SDS011;43583;53.132;6.574;2023-06-04T06:49:41;1.73;;;0.30;;
57752;SDS011;43583;53.132;6.574;2023-06-04T06:52:07;4.63;;;0.30;;
57752;SDS011;43583;53.132;6.574;2023-06-04T06:54:33;2.45;;;0.30;;
57752;SDS011;43583;53.132;6.574;2023-06-04T06:56:59;2.03;;;0.30;;
57752;SDS011;43583;53.132;6.574;2023-06-04T06:59:24;1.80;;;0.20;;
57752;SDS011;43583;53.132;6.574;2023-06-04T07:01:50;1.48;;;0.25;;
57752;SDS011;43583;53.132;6.574;2023-06-04T07:04:16;2.75;;;0.63;;
57752;SDS011;43583;53.132;6.574;2023-06-04T07:06:42;2.80;;;0.20;;
57752;SDS011;43583;53.132;6.574;2023-06-04T07:09:08;3.33;;;0.40;;
57752;SDS011;43583;53.132;6.574;2023-06-04T07:11:34;1.35;;;0.20;;
57752;SDS011;43583;53.132;6.574;2023-06-04T07:14:00;2.15;;;0.25;;
57752;SDS011;43583;53.132;6.574;2023-06-04T07:16:27;4.95;;;0.52;;
57752;SDS011;43583;53.132;6.574;2023-06-04T07:18:53;3.10;;;0.25;;
57752;SDS011;43583;53.132;6.574;2023-06-04T07:21:19;1.17;;;0.10;;
57752;SDS011;43583;53.132;6.574;2023-06-04T07:23:47;2.90;;;0.22;;
57752;SDS011;43583;53.132;6.574;2023-06-04T07:26:14;2.63;;;0.50;;
57752;SDS011;43583;53.132;6.574;2023-06-04T07:28:40;1.45;;;0.35;;
57752;SDS011;43583;53.132;6.574;2023-06-04T07:31:06;3.40;;;0.20;;
57752;SDS011;43583;53.132;6.574;2023-06-04T07:33:32;1.73;;;0.20;;
57752;SDS011;43583;53.132;6.574;2023-06-04T07:35:57;1.80;;;0.20;;
57752;SDS011;43583;53.132;6.574;2023-06-04T07:38:24;2.05;;;0.20;;
57752;SDS011;43583;53.132;6.574;2023-06-04T07:40:50;0.40;;;0.10;;
57752;SDS011;43583;53.132;6.574;2023-06-04T07:43:15;2.85;;;0.20;;
57752;SDS011;43583;53.132;6.574;2023-06-04T07:45:41;1.00;;;0.20;;
57752;SDS011;43583;53.132;6.574;2023-06-04T07:48:08;1.40;;;0.10;;
57752;SDS011;43583;53.132;6.574;2023-06-04T07:50:35;0.88;;;0.10;;
57752;SDS011;43583;53.132;6.574;2023-06-04T07:53:01;0.77;;;0.20;;
57752;SDS011;43583;53.132;6.574;2023-06-04T07:55:27;0.65;;;0.15;;
57752;SDS011;43583;53.132;6.574;2023-06-04T07:57:52;2.05;;;0.20;;
57752;SDS011;43583;53.132;6.574;2023-06-04T08:00:18;1.42;;;0.30;;
57752;SDS011;43583;53.132;6.574;2023-06-04T08:02:44;1.38;;;0.20;;
57752;SDS011;43583;53.132;6.574;2023-06-04T08:05:10;1.23;;;0.20;;
57752;SDS011;43583;53.132;6.574;2023-06-04T08:07:38;0.93;;;0.10;;
57752;SDS011;43583;53.132;6.574;2023-06-04T08:10:04;1.55;;;0.20;;
57752;SDS011;43583;53.132;6.574;2023-06-04T08:12:31;0.38;;;0.10;;
57752;SDS011;43583;53.132;6.574;2023-06-04T08:14:57;1.48;;;0.20;;
57752;SDS011;43583;53.132;6.574;2023-06-04T08:17:22;0.95;;;0.20;;
57752;SDS011;43583;53.132;6.574;2023-06-04T08:19:48;3.47;;;0.10;;
57752;SDS011;43583;53.132;6.574;2023-06-04T08:22:14;0.50;;;0.15;;
57752;SDS011;43583;53.132;6.574;2023-06-04T08:24:40;1.67;;;0.10;;
57752;SDS011;43583;53.132;6.574;2023-06-04T08:27:05;0.60;;;0.10;;
57752;SDS011;43583;53.132;6.574;2023-06-04T08:29:33;2.22;;;0.20;;
57752;SDS011;43583;53.132;6.574;2023-06-04T08:32:00;3.30;;;0.40;;
57752;SDS011;43583;53.132;6.574;2023-06-04T08:34:27;2.08;;;0.20;;
57752;SDS011;43583;53.132;6.574;2023-06-04T08:36:53;1.58;;;0.40;;
57752;SDS011;43583;53.132;6.574;2023-06-04T08:39:18;1.02;;;0.20;;
57752;SDS011;43583;53.132;6.574;2023-06-04T08:41:46;3.50;;;0.32;;
57752;SDS011;43583;53.132;6.574;2023-06-04T08:44:18;1.05;;;0.10;;
57752;SDS011;43583;53.132;6.574;2023-06-04T08:46:44;2.42;;;0.20;;
57752;SDS011;43583;53.132;6.574;2023-06-04T08:49:12;1.23;;;0.10;;
57752;SDS011;43583;53.132;6.574;2023-06-04T08:51:38;2.80;;;0.20;;
57752;SDS011;43583;53.132;6.574;2023-06-04T08:54:05;1.92;;;0.10;;
57752;SDS011;43583;53.132;6.574;2023-06-04T08:56:35;0.80;;;0.10;;
57752;SDS011;43583;53.132;6.574;2023-06-04T08:59:05;2.30;;;0.20;;
57752;SDS011;43583;53.132;6.574;2023-06-04T09:01:32;0.63;;;0.10;;
57752;SDS011;43583;53.132;6.574;2023-06-04T09:04:00;2.08;;;0.20;;
57752;SDS011;43583;53.132;6.574;2023-06-04T09:06:28;1.23;;;0.10;;
57752;SDS011;43583;53.132;6.574;2023-06-04T09:08:56;0.50;;;0.10;;
57752;SDS011;43583;53.132;6.574;2023-06-04T09:11:26;1.40;;;0.20;;
57752;SDS011;43583;53.132;6.574;2023-06-04T09:13:56;1.70;;;0.38;;
57752;SDS011;43583;53.132;6.574;2023-06-04T09:16:26;2.28;;;0.30;;
57752;SDS011;43583;53.132;6.574;2023-06-04T09:18:51;1.30;;;0.20;;
57752;SDS011;43583;53.132;6.574;2023-06-04T09:21:18;0.73;;;0.13;;
57752;SDS011;43583;53.132;6.574;2023-06-04T09:23:45;1.58;;;0.10;;
57752;SDS011;43583;53.132;6.574;2023-06-04T09:26:12;1.77;;;0.20;;
57752;SDS011;43583;53.132;6.574;2023-06-04T09:28:41;1.40;;;0.20;;
57752;SDS011;43583;53.132;6.574;2023-06-04T09:31:14;0.98;;;0.10;;
57752;SDS011;43583;53.132;6.574;2023-06-04T09:33:49;0.73;;;0.22;;
57752;SDS011;43583;53.132;6.574;2023-06-04T09:36:15;1.42;;;0.10;;
57752;SDS011;43583;53.132;6.574;2023-06-04T09:38:42;1.20;;;0.10;;
57752;SDS011;43583;53.132;6.574;2023-06-04T09:41:12;0.40;;;0.05;;
57752;SDS011;43583;53.132;6.574;2023-06-04T09:43:42;0.65;;;0.10;;
57752;SDS011;43583;53.132;6.574;2023-06-04T09:46:15;1.50;;;0.10;;
57752;SDS011;43583;53.132;6.574;2023-06-04T09:48:42;2.10;;;0.20;;
57752;SDS011;43583;53.132;6.574;2023-06-04T09:51:09;2.08;;;0.50;;
57752;SDS011;43583;53.132;6.574;2023-06-04T09:53:53;1.30;;;0.38;;
57752;SDS011;43583;53.132;6.574;2023-06-04T09:56:20;1.25;;;0.35;;
57752;SDS011;43583;53.132;6.574;2023-06-04T09:58:46;0.60;;;0.20;;
57752;SDS011;43583;53.132;6.574;2023-06-04T10:01:18;1.70;;;0.10;;
57752;SDS011;43583;53.132;6.574;2023-06-04T10:03:46;0.77;;;0.10;;
57752;SDS011;43583;53.132;6.574;2023-06-04T10:06:14;1.60;;;0.17;;
57752;SDS011;43583;53.132;6.574;2023-06-04T10:08:41;1.00;;;0.10;;
57752;SDS011;43583;53.132;6.574;2023-06-04T10:11:07;0.93;;;0.10;;
57752;SDS011;43583;53.132;6.574;2023-06-04T10:13:38;0.98;;;0.10;;
57752;SDS011;43583;53.132;6.574;2023-06-04T10:16:10;2.08;;;0.47;;
57752;SDS011;43583;53.132;6.574;2023-06-04T10:18:36;0.60;;;0.10;;
57752;SDS011;43583;53.132;6.574;2023-06-04T10:21:02;0.95;;;0.30;;
57752;SDS011;43583;53.132;6.574;2023-06-04T10:23:28;0.70;;;0.10;;
57752;SDS011;43583;53.132;6.574;2023-06-04T10:25:54;1.85;;;0.10;;
57752;SDS011;43583;53.132;6.574;2023-06-04T10:28:21;0.80;;;0.20;;
57752;SDS011;43583;53.132;6.574;2023-06-04T10:30:48;0.75;;;0.10;;
57752;SDS011;43583;53.132;6.574;2023-06-04T10:33:16;0.75;;;0.10;;
57752;SDS011;43583;53.132;6.574;2023-06-04T10:35:45;1.20;;;0.10;;
57752;SDS011;43583;53.132;6.574;2023-06-04T10:38:12;0.68;;;0.10;;
57752;SDS011;43583;53.132;6.574;2023-06-04T10:40:39;0.77;;;0.28;;
57752;SDS011;43583;53.132;6.574;2023-06-04T10:43:11;1.45;;;0.10;;
57752;SDS011;43583;53.132;6.574;2023-06-04T10:45:39;0.95;;;0.13;;
57752;SDS011;43583;53.132;6.574;2023-06-04T10:48:06;0.68;;;0.13;;
57752;SDS011;43583;53.132;6.574;2023-06-04T10:50:32;0.60;;;0.10;;
57752;SDS011;43583;53.132;6.574;2023-06-04T10:53:00;2.05;;;0.20;;
57752;SDS011;43583;53.132;6.574;2023-06-04T10:55:28;0.52;;;0.20;;
57752;SDS011;43583;53.132;6.574;2023-06-04T10:57:56;1.08;;;0.22;;
57752;SDS011;43583;53.132;6.574;2023-06-04T11:00:29;1.35;;;0.20;;
57752;SDS011;43583;53.132;6.574;2023-06-04T11:03:04;2.90;;;0.20;;
57752;SDS011;43583;53.132;6.574;2023-06-04T11:05:39;1.77;;;0.10;;
57752;SDS011;43583;53.132;6.574;2023-06-04T11:08:06;0.90;;;0.15;;
57752;SDS011;43583;53.132;6.574;2023-06-04T11:10:33;1.40;;;0.10;;
57752;SDS011;43583;53.132;6.574;2023-06-04T11:13:00;1.35;;;0.10;;
57752;SDS011;43583;53.132;6.574;2023-06-04T11:15:26;0.75;;;0.15;;
57752;SDS011;43583;53.132;6.574;2023-06-04T11:18:01;0.80;;;0.10;;
57752;SDS011;43583;53.132;6.574;2023-06-04T11:20:27;0.55;;;0.10;;
57752;SDS011;43583;53.132;6.574;2023-06-04T11:22:53;1.83;;;0.30;;
57752;SDS011;43583;53.132;6.574;2023-06-04T11:25:21;1.00;;;0.20;;
57752;SDS011;43583;53.132;6.574;2023-06-04T11:27:48;1.45;;;0.20;;
57752;SDS011;43583;53.132;6.574;2023-06-04T11:30:15;1.75;;;0.20;;
57752;SDS011;43583;53.132;6.574;2023-06-04T11:32:41;0.88;;;0.30;;
57752;SDS011;43583;53.132;6.574;2023-06-04T11:35:07;0.77;;;0.15;;
57752;SDS011;43583;53.132;6.574;2023-06-04T11:37:33;0.65;;;0.13;;
57752;SDS011;43583;53.132;6.574;2023-06-04T11:39:59;2.80;;;0.90;;
57752;SDS011;43583;53.132;6.574;2023-06-04T11:42:27;1.38;;;0.20;;
57752;SDS011;43583;53.132;6.574;2023-06-04T11:44:57;2.20;;;0.20;;
57752;SDS011;43583;53.132;6.574;2023-06-04T11:47:23;1.60;;;0.20;;
57752;SDS011;43583;53.132;6.574;2023-06-04T11:49:53;4.82;;;0.40;;
57752;SDS011;43583;53.132;6.574;2023-06-04T11:52:21;0.57;;;0.10;;
57752;SDS011;43583;53.132;6.574;2023-06-04T11:54:46;2.15;;;0.20;;
57752;SDS011;43583;53.132;6.574;2023-06-04T11:57:12;3.67;;;0.20;;
57752;SDS011;43583;53.132;6.574;2023-06-04T11:59:38;1.33;;;0.10;;
57752;SDS011;43583;53.132;6.574;2023-06-04T12:02:04;1.50;;;0.20;;
57752;SDS011;43583;53.132;6.574;2023-06-04T12:04:32;0.50;;;0.20;;
57752;SDS011;43583;53.132;6.574;2023-06-04T12:06:58;1.40;;;0.38;;
57752;SDS011;43583;53.132;6.574;2023-06-04T12:09:29;0.77;;;0.20;;
57752;SDS011;43583;53.132;6.574;2023-06-04T12:12:05;2.63;;;0.30;;
57752;SDS011;43583;53.132;6.574;2023-06-04T12:14:32;0.98;;;0.20;;
57752;SDS011;43583;53.132;6.574;2023-06-04T12:17:02;2.90;;;0.20;;
57752;SDS011;43583;53.132;6.574;2023-06-04T12:19:31;0.88;;;0.30;;
57752;SDS011;43583;53.132;6.574;2023-06-04T12:22:02;1.13;;;0.20;;
57752;SDS011;43583;53.132;6.574;2023-06-04T12:24:45;0.80;;;0.30;;
57752;SDS011;43583;53.132;6.574;2023-06-04T12:27:12;3.30;;;0.15;;
57752;SDS011;43583;53.132;6.574;2023-06-04T12:29:38;3.55;;;0.20;;
57752;SDS011;43583;53.132;6.574;2023-06-04T12:32:05;2.90;;;0.20;;
57752;SDS011;43583;53.132;6.574;2023-06-04T12:34:38;1.67;;;0.20;;
57752;SDS011;43583;53.132;6.574;2023-06-04T12:37:05;0.70;;;0.20;;
57752;SDS011;43583;53.132;6.574;2023-06-04T12:39:34;2.20;;;0.17;;
57752;SDS011;43583;53.132;6.574;2023-06-04T12:42:02;3.13;;;0.20;;
57752;SDS011;43583;53.132;6.574;2023-06-04T12:44:31;2.58;;;0.60;;
57752;SDS011;43583;53.132;6.574;2023-06-04T12:46:57;1.35;;;0.20;;
57752;SDS011;43583;53.132;6.574;2023-06-04T12:49:23;1.35;;;0.20;;
57752;SDS011;43583;53.132;6.574;2023-06-04T12:51:48;1.08;;;0.20;;
57752;SDS011;43583;53.132;6.574;2023-06-04T12:54:14;2.08;;;0.20;;
57752;SDS011;43583;53.132;6.574;2023-06-04T12:56:40;1.92;;;0.22;;
57752;SDS011;43583;53.132;6.574;2023-06-04T12:59:06;0.80;;;0.20;;
57752;SDS011;43583;53.132;6.574;2023-06-04T13:01:31;1.05;;;0.20;;
57752;SDS011;43583;53.132;6.574;2023-06-04T13:03:57;0.85;;;0.20;;
57752;SDS011;43583;53.132;6.574;2023-06-04T13:06:23;1.55;;;0.32;;
57752;SDS011;43583;53.132;6.574;2023-06-04T13:08:48;1.58;;;0.22;;
57752;SDS011;43583;53.132;6.574;2023-06-04T13:11:14;1.20;;;0.20;;
57752;SDS011;43583;53.132;6.574;2023-06-04T13:13:40;1.20;;;0.20;;
57752;SDS011;43583;53.132;6.574;2023-06-04T13:16:07;1.52;;;0.20;;
57752;SDS011;43583;53.132;6.574;2023-06-04T13:18:32;2.13;;;0.20;;
57752;SDS011;43583;53.132;6.574;2023-06-04T13:20:58;3.42;;;0.20;;
57752;SDS011;43583;53.132;6.574;2023-06-04T13:23:24;1.50;;;0.35;;
57752;SDS011;43583;53.132;6.574;2023-06-04T13:25:49;0.82;;;0.20;;
57752;SDS011;43583;53.132;6.574;2023-06-04T13:28:15;1.67;;;0.10;;
57752;SDS011;43583;53.132;6.574;2023-06-04T13:30:42;1.52;;;0.25;;
57752;SDS011;43583;53.132;6.574;2023-06-04T13:33:08;1.58;;;0.20;;
57752;SDS011;43583;53.132;6.574;2023-06-04T13:35:34;1.60;;;0.28;;
57752;SDS011;43583;53.132;6.574;2023-06-04T13:37:59;1.45;;;0.15;;
57752;SDS011;43583;53.132;6.574;2023-06-04T13:40:25;1.33;;;0.20;;
57752;SDS011;43583;53.132;6.574;2023-06-04T13:42:51;3.40;;;0.22;;
57752;SDS011;43583;53.132;6.574;2023-06-04T13:45:16;0.95;;;0.10;;
57752;SDS011;43583;53.132;6.574;2023-06-04T13:47:45;1.55;;;0.13;;
57752;SDS011;43583;53.132;6.574;2023-06-04T13:50:11;1.20;;;0.20;;
57752;SDS011;43583;53.132;6.574;2023-06-04T13:52:37;1.85;;;0.10;;
57752;SDS011;43583;53.132;6.574;2023-06-04T13:55:02;0.82;;;0.10;;
57752;SDS011;43583;53.132;6.574;2023-06-04T13:57:28;1.15;;;0.45;;
57752;SDS011;43583;53.132;6.574;2023-06-04T13:59:54;1.23;;;0.20;;
57752;SDS011;43583;53.132;6.574;2023-06-04T14:02:19;1.95;;;0.10;;
57752;SDS011;43583;53.132;6.574;2023-06-04T14:04:46;1.38;;;0.20;;
57752;SDS011;43583;53.132;6.574;2023-06-04T14:07:11;1.38;;;0.10;;
57752;SDS011;43583;53.132;6.574;2023-06-04T14:09:37;1.73;;;0.20;;
57752;SDS011;43583;53.132;6.574;2023-06-04T14:12:03;0.65;;;0.10;;
57752;SDS011;43583;53.132;6.574;2023-06-04T14:14:29;2.08;;;0.10;;
57752;SDS011;43583;53.132;6.574;2023-06-04T14:17:01;2.72;;;0.75;;
57752;SDS011;43583;53.132;6.574;2023-06-04T14:19:27;2.65;;;0.30;;
57752;SDS011;43583;53.132;6.574;2023-06-04T14:21:53;1.77;;;0.77;;
57752;SDS011;43583;53.132;6.574;2023-06-04T14:24:18;3.88;;;0.30;;
57752;SDS011;43583;53.132;6.574;2023-06-04T14:26:44;1.83;;;0.22;;
57752;SDS011;43583;53.132;6.574;2023-06-04T14:29:10;2.28;;;0.13;;
57752;SDS011;43583;53.132;6.574;2023-06-04T14:31:36;1.77;;;0.17;;
57752;SDS011;43583;53.132;6.574;2023-06-04T14:34:01;1.25;;;0.30;;
57752;SDS011;43583;53.132;6.574;2023-06-04T14:36:27;1.20;;;0.10;;
57752;SDS011;43583;53.132;6.574;2023-06-04T14:38:53;3.00;;;0.50;;
57752;SDS011;43583;53.132;6.574;2023-06-04T14:41:18;2.45;;;0.40;;
57752;SDS011;43583;53.132;6.574;2023-06-04T14:43:44;2.25;;;0.47;;
57752;SDS011;43583;53.132;6.574;2023-06-04T14:46:10;1.13;;;0.20;;
57752;SDS011;43583;53.132;6.574;2023-06-04T14:48:35;2.60;;;0.40;;
57752;SDS011;43583;53.132;6.574;2023-06-04T14:51:01;0.75;;;0.20;;